Aérodrome :
LOGIN :

S'inscrire | Disclaimer

   EN    FR    IT 

 










Légende :    VFR   VFR Marginal   IFR   IFR Intensif   IFR Très Intensif
Visi : 
Plafond : 
>= 8 km
>= 3000ft
5 à 8 km
1000 à 3000 ft
1500m à 5 km
500 à 1000 ft
800 à 1500m
200 à 500 ft
< 800m
< 200 ft
Symboles :   Orages  Brouillard  Fortes neiges  Fortes précipitations  Vent > 20 kt
SIGMETs :   Divers  Orages  Givrage  Turbulence  Onde Orograph.  Cendres Volcan.







- Altitude de l'aérodrome : 194 ft


EBCV - Chièvres

DERNIER METAR :
  • 171255Z AUTO VRB02KT 9999 FEW028/// 19/12 Q1019 BLU

METARs EXPIRÉS :
  • 171250Z AUTO 31003KT 7000 SCT028/// 19/12 Q1019 WHT
  • 171225Z AUTO VRB02KT 9999 NCD 19/12 Q1019 BLU
  • 171155Z AUTO VRB02KT 9999 NCD 19/12 Q1019 BLU
  • 171125Z AUTO VRB01KT 9999 NCD 19/12 Q1020 BLU
  • 171055Z AUTO VRB02KT 9999 NCD 18/12 Q1020 BLU
  • 171025Z AUTO VRB02KT 9999 NCD 17/13 Q1020 BLU

TAF TAF EBCV
Valide du 17 à 13h jusqu'au 17 à 22h UTC


171146Z 1713/1722 34005KT 9999 FEW030 SCT250
BECMG 1718/1720 03006KT SCT030 SCT250 BY EBWM
Pas de NOTAMs connus pour ce terrain.



MET'MAP, la Météo Aéronautique d'un coup d'oeil ! - Copyright ORBIFLY Décembre 2007 - Disclaimer

ORBIFLY MET'MAP TEAM :

Programmation & Développement : Alexandra Zaïnal
Conception & Développement : Baudouin d'Aumeries
Co-Programmation & Développement : Marc-Olivier Méhu
Soutien technique & logistique : Manuel Goepfert

Contact : metmap@orbifly.com




SOURCES & CREDITS :

   NOAA